createdAt,value
2017-11-12T00:01:37.791Z,8.20
2017-11-12T00:04:05.423Z,8.20
2017-11-12T00:06:33.022Z,8.20
2017-11-12T00:09:00.909Z,8.20
2017-11-12T00:11:29.259Z,8.10
2017-11-12T00:13:56.847Z,8.10
2017-11-12T00:16:25.227Z,8.10
2017-11-12T00:18:53.696Z,8.00
2017-11-12T00:21:22.318Z,8.00
2017-11-12T00:23:49.923Z,8.00
2017-11-12T00:26:17.880Z,8.10
2017-11-12T00:28:45.462Z,8.10
2017-11-12T00:31:13.043Z,8.00
2017-11-12T00:33:41.424Z,8.00
2017-11-12T00:36:09.775Z,8.00
2017-11-12T00:38:37.380Z,8.00
2017-11-12T00:41:04.987Z,8.10
2017-11-12T00:43:32.836Z,8.10
2017-11-12T00:46:00.419Z,8.00
2017-11-12T00:48:27.984Z,8.00
2017-11-12T00:50:55.622Z,7.90
2017-11-12T00:53:23.216Z,7.90
2017-11-12T00:55:51.072Z,8.00
2017-11-12T00:58:18.660Z,8.00
2017-11-12T01:00:46.243Z,8.00
2017-11-12T01:03:13.871Z,7.90
2017-11-12T01:05:41.462Z,7.90
2017-11-12T01:08:09.092Z,7.90
2017-11-12T01:10:37.442Z,8.00
2017-11-12T01:13:05.296Z,8.00
2017-11-12T01:15:32.888Z,8.00
2017-11-12T01:18:01.248Z,7.90
2017-11-12T01:20:28.859Z,7.90
2017-11-12T01:22:56.439Z,7.90
2017-11-12T01:25:24.116Z,7.90
2017-11-12T01:27:51.688Z,7.90
2017-11-12T01:30:19.556Z,7.90
2017-11-12T01:32:47.143Z,7.90
2017-11-12T01:35:15.493Z,7.80
2017-11-12T01:37:43.168Z,7.80
2017-11-12T01:40:11.527Z,7.70
2017-11-12T01:42:40.202Z,7.70
2017-11-12T01:45:07.783Z,7.70
2017-11-12T01:47:35.361Z,7.70
2017-11-12T01:50:03.751Z,7.70
2017-11-12T01:52:31.319Z,7.70
2017-11-12T01:54:58.928Z,7.70
2017-11-12T01:57:26.549Z,7.60
2017-11-12T01:59:54.131Z,7.60
2017-11-12T02:02:21.728Z,7.60
2017-11-12T02:04:49.368Z,7.60
2017-11-12T02:07:17.249Z,7.60
2017-11-12T02:09:44.820Z,7.60
2017-11-12T02:12:13.188Z,7.70
2017-11-12T02:14:40.783Z,7.60
2017-11-12T02:17:08.448Z,7.70
2017-11-12T02:19:36.026Z,7.70
2017-11-12T02:22:04.375Z,7.70
2017-11-12T02:24:31.940Z,7.70
2017-11-12T02:26:59.560Z,7.60
2017-11-12T02:29:27.146Z,7.60
2017-11-12T02:31:54.729Z,7.60
2017-11-12T02:34:22.439Z,7.60
2017-11-12T02:36:50.013Z,7.50
2017-11-12T02:39:17.629Z,7.50
2017-11-12T02:41:45.232Z,7.50
2017-11-12T02:44:13.649Z,7.50
2017-11-12T02:46:41.206Z,7.50
2017-11-12T02:49:08.810Z,7.60
2017-11-12T02:51:36.389Z,7.70
2017-11-12T02:54:03.973Z,7.80
2017-11-12T02:56:31.610Z,7.80
2017-11-12T02:58:59.192Z,7.70
2017-11-12T03:01:26.849Z,7.60
2017-11-12T03:03:54.418Z,7.60
2017-11-12T03:06:22.000Z,7.60
2017-11-12T03:08:49.722Z,7.60
2017-11-12T03:11:18.106Z,7.50
2017-11-12T03:13:45.692Z,7.50
2017-11-12T03:16:13.284Z,7.40
2017-11-12T03:18:40.883Z,7.30
2017-11-12T03:21:08.830Z,7.30
2017-11-12T03:23:37.191Z,7.40
2017-11-12T03:26:04.764Z,7.40
2017-11-12T03:28:32.412Z,7.40
2017-11-12T03:31:00.075Z,7.30
2017-11-12T03:33:27.669Z,7.40
2017-11-12T03:35:56.012Z,7.40
2017-11-12T03:38:23.640Z,7.40
2017-11-12T03:40:51.238Z,7.40
2017-11-12T03:43:18.808Z,7.30
2017-11-12T03:45:46.403Z,7.40
2017-11-12T03:48:14.120Z,7.40
2017-11-12T03:50:41.705Z,7.30
2017-11-12T03:53:10.075Z,7.20
2017-11-12T03:55:38.419Z,7.30
2017-11-12T03:58:06.052Z,7.20
2017-11-12T04:00:33.649Z,7.30
2017-11-12T04:03:01.246Z,7.40
2017-11-12T04:05:29.621Z,7.40
2017-11-12T04:07:57.226Z,7.30
2017-11-12T04:10:24.820Z,7.30
2017-11-12T04:12:52.445Z,7.30
2017-11-12T04:15:20.041Z,7.30
2017-11-12T04:17:47.748Z,7.30
2017-11-12T04:20:15.318Z,7.20
2017-11-12T04:22:42.943Z,7.20
2017-11-12T04:25:11.260Z,7.20
2017-11-12T04:27:38.989Z,7.20
2017-11-12T04:30:06.574Z,7.30
2017-11-12T04:32:34.151Z,7.30
2017-11-12T04:35:01.751Z,7.30
2017-11-12T04:37:30.089Z,7.40
2017-11-12T04:39:57.666Z,7.40
2017-11-12T04:42:25.269Z,7.50
2017-11-12T04:44:52.908Z,7.50
2017-11-12T04:47:21.340Z,7.40
2017-11-12T04:49:48.942Z,7.40
2017-11-12T04:52:16.527Z,7.30
2017-11-12T04:54:44.188Z,7.20
2017-11-12T04:57:11.759Z,7.30
2017-11-12T04:59:39.461Z,7.40
2017-11-12T05:02:07.082Z,7.30
2017-11-12T05:04:35.905Z,7.20
2017-11-12T05:07:03.824Z,7.20
2017-11-12T05:09:31.456Z,7.10
2017-11-12T05:11:59.818Z,7.40
2017-11-12T05:14:27.409Z,7.40
2017-11-12T05:16:55.797Z,7.40
2017-11-12T05:19:24.205Z,7.40
2017-11-12T05:21:52.100Z,7.40
2017-11-12T05:24:19.694Z,7.40
2017-11-12T05:26:48.136Z,7.20
2017-11-12T05:29:15.752Z,7.20
2017-11-12T05:31:43.326Z,7.20
2017-11-12T05:34:10.932Z,7.20
2017-11-12T05:36:38.610Z,7.10
2017-11-12T05:39:07.306Z,7.00
2017-11-12T05:41:34.891Z,7.00
2017-11-12T05:44:02.458Z,7.10
2017-11-12T05:46:30.157Z,7.10
2017-11-12T05:48:57.734Z,7.00
2017-11-12T05:51:26.148Z,6.90
2017-11-12T05:53:53.733Z,6.90
2017-11-12T05:56:21.629Z,6.90
2017-11-12T05:58:49.225Z,6.90
2017-11-12T06:01:16.802Z,6.80
2017-11-12T06:03:44.385Z,6.90
2017-11-12T06:06:12.142Z,7.00
2017-11-12T06:08:39.756Z,7.00
2017-11-12T06:11:07.331Z,7.10
2017-11-12T06:13:35.147Z,7.20
2017-11-12T06:16:02.732Z,7.20
2017-11-12T06:18:30.307Z,7.00
2017-11-12T06:20:57.927Z,6.90
2017-11-12T06:23:25.857Z,7.00
2017-11-12T06:25:53.455Z,6.90
2017-11-12T06:28:21.035Z,6.90
2017-11-12T06:30:49.663Z,6.80
2017-11-12T06:33:17.259Z,6.80
2017-11-12T06:35:44.827Z,6.90
2017-11-12T06:38:12.417Z,6.90
2017-11-12T06:40:40.770Z,6.90
2017-11-12T06:43:09.210Z,7.00
2017-11-12T06:45:36.886Z,7.00
2017-11-12T06:48:04.845Z,6.80
2017-11-12T06:50:32.431Z,6.80
2017-11-12T06:53:00.008Z,6.70
2017-11-12T06:55:28.443Z,6.60
2017-11-12T06:57:56.029Z,6.60
2017-11-12T07:00:23.624Z,6.60
2017-11-12T07:02:51.571Z,6.70
2017-11-12T07:05:20.371Z,6.70
2017-11-12T07:07:49.130Z,6.70
2017-11-12T07:10:16.711Z,6.70
2017-11-12T07:12:45.076Z,6.60
2017-11-12T07:15:12.880Z,6.60
2017-11-12T07:17:41.247Z,6.50
2017-11-12T07:20:08.822Z,6.50
2017-11-12T07:22:36.676Z,6.50
2017-11-12T07:25:04.259Z,6.50
2017-11-12T07:27:31.862Z,6.60
2017-11-12T07:29:59.486Z,6.70
2017-11-12T07:32:27.305Z,6.70
2017-11-12T07:34:54.978Z,6.70
2017-11-12T07:37:22.566Z,6.70
2017-11-12T07:39:51.252Z,6.90
2017-11-12T07:42:18.901Z,6.90
2017-11-12T07:44:46.476Z,6.90
2017-11-12T07:47:14.834Z,6.90
2017-11-12T07:49:42.449Z,6.90
2017-11-12T07:52:10.166Z,6.80
2017-11-12T07:54:37.769Z,6.70
2017-11-12T07:57:05.334Z,6.70
2017-11-12T07:59:33.009Z,6.70
2017-11-12T08:02:01.687Z,6.60
2017-11-12T08:04:30.032Z,6.60
2017-11-12T08:06:57.619Z,6.70
2017-11-12T08:09:25.280Z,6.70
2017-11-12T08:11:53.699Z,6.70
2017-11-12T08:14:21.326Z,6.70
2017-11-12T08:16:49.703Z,6.80
2017-11-12T08:19:18.346Z,6.80
2017-11-12T08:21:45.932Z,6.80
2017-11-12T08:24:13.514Z,7.00
2017-11-12T08:26:41.139Z,6.80
2017-11-12T08:29:08.738Z,6.70
2017-11-12T08:31:37.175Z,6.60
2017-11-12T08:34:04.806Z,6.60
2017-11-12T08:36:32.713Z,6.60
2017-11-12T08:39:00.313Z,6.60
2017-11-12T08:41:27.892Z,6.70
2017-11-12T08:43:55.450Z,6.70
2017-11-12T08:46:22.997Z,6.70
2017-11-12T08:48:50.610Z,6.70
2017-11-12T08:51:18.188Z,6.70
2017-11-12T08:53:46.787Z,6.80
2017-11-12T08:56:15.133Z,6.90
2017-11-12T08:58:42.715Z,6.80
2017-11-12T09:01:11.103Z,6.90
2017-11-12T09:03:39.565Z,6.90
2017-11-12T09:06:07.965Z,6.90
2017-11-12T09:08:35.592Z,6.90
2017-11-12T09:11:04.276Z,7.00
2017-11-12T09:13:31.866Z,6.90
2017-11-12T09:16:00.230Z,6.90
2017-11-12T09:18:28.599Z,7.00
2017-11-12T09:20:56.955Z,7.00
2017-11-12T09:23:24.548Z,7.00
2017-11-12T09:25:52.914Z,7.30
2017-11-12T09:28:20.800Z,7.30
2017-11-12T09:30:49.125Z,7.30
2017-11-12T09:33:16.719Z,7.30
2017-11-12T09:35:44.391Z,7.40
2017-11-12T09:38:12.922Z,7.60
2017-11-12T09:40:40.519Z,7.50
2017-11-12T09:43:08.091Z,7.70
2017-11-12T09:45:36.739Z,7.70
2017-11-12T09:48:04.374Z,7.70
2017-11-12T09:50:32.000Z,7.80
2017-11-12T09:53:00.351Z,7.90
2017-11-12T09:55:27.935Z,7.90
2017-11-12T09:57:56.296Z,7.90
2017-11-12T10:00:24.021Z,7.90
2017-11-12T10:02:51.876Z,7.90
2017-11-12T10:05:19.420Z,7.90
2017-11-12T10:07:47.039Z,8.00
2017-11-12T10:10:14.693Z,8.00
2017-11-12T10:12:43.097Z,8.00
2017-11-12T10:15:11.515Z,7.90
2017-11-12T10:17:40.004Z,7.80
2017-11-12T10:20:08.130Z,7.70
2017-11-12T10:22:36.560Z,7.50
2017-11-12T10:25:04.216Z,7.50
2017-11-12T10:27:31.826Z,7.40
2017-11-12T10:30:00.187Z,7.10
2017-11-12T10:32:27.871Z,7.10
2017-11-12T10:34:56.239Z,6.90
2017-11-12T10:37:24.124Z,6.90
2017-11-12T10:39:52.490Z,6.80
2017-11-12T10:42:20.929Z,6.60
2017-11-12T10:44:48.616Z,6.60
2017-11-12T10:47:16.262Z,6.50
2017-11-12T10:49:43.888Z,6.10
2017-11-12T10:52:12.237Z,5.70
2017-11-12T10:54:40.881Z,5.50
2017-11-12T10:57:08.515Z,5.50
2017-11-12T10:59:36.211Z,5.40
2017-11-12T11:02:03.807Z,5.40
2017-11-12T11:04:32.269Z,5.30
2017-11-12T11:06:59.928Z,5.20
2017-11-12T11:09:28.316Z,5.10
2017-11-12T11:11:57.081Z,5.00
2017-11-12T11:14:24.676Z,5.00
2017-11-12T11:16:53.068Z,4.60
2017-11-12T11:19:20.667Z,4.60
2017-11-12T11:21:48.285Z,4.50
2017-11-12T11:24:15.905Z,4.60
2017-11-12T11:26:43.623Z,4.70
2017-11-12T11:29:11.630Z,4.70
2017-11-12T11:31:39.266Z,4.70
2017-11-12T11:34:06.876Z,4.80
2017-11-12T11:36:35.281Z,4.80
2017-11-12T11:39:02.890Z,4.80
2017-11-12T11:41:30.513Z,4.80
2017-11-12T11:43:58.144Z,4.80
2017-11-12T11:46:27.017Z,4.80
2017-11-12T11:48:54.675Z,4.80
2017-11-12T11:51:22.291Z,4.70
2017-11-12T11:53:49.946Z,4.70
2017-11-12T11:56:17.636Z,4.80
2017-11-12T11:58:45.300Z,4.80
2017-11-12T12:01:12.919Z,4.90
2017-11-12T12:03:40.851Z,4.90
2017-11-12T12:06:08.517Z,4.90
2017-11-12T12:08:36.125Z,5.00
2017-11-12T12:11:03.733Z,4.90
2017-11-12T12:13:31.410Z,4.80
2017-11-12T12:15:59.007Z,4.80
2017-11-12T12:18:26.606Z,4.90
2017-11-12T12:20:54.549Z,4.90
2017-11-12T12:23:22.242Z,4.90
2017-11-12T12:25:50.654Z,5.10
2017-11-12T12:28:18.282Z,5.00
2017-11-12T12:30:45.926Z,5.00
2017-11-12T12:33:13.659Z,5.00
2017-11-12T12:35:41.300Z,5.10
2017-11-12T12:38:09.201Z,5.00
2017-11-12T12:40:36.796Z,5.00
2017-11-12T12:43:04.659Z,5.00
2017-11-12T12:45:33.048Z,5.00
2017-11-12T12:48:00.660Z,5.00
2017-11-12T12:50:28.632Z,5.00
2017-11-12T12:52:56.262Z,5.20
2017-11-12T12:55:23.891Z,5.20
2017-11-12T12:57:51.574Z,5.20
2017-11-12T13:00:19.485Z,5.10
2017-11-12T13:02:47.381Z,5.20
2017-11-12T13:05:15.071Z,5.20
2017-11-12T13:07:42.913Z,5.30
2017-11-12T13:10:10.538Z,5.20
2017-11-12T13:12:38.126Z,5.20
2017-11-12T13:15:05.730Z,5.20
2017-11-12T13:17:33.359Z,5.30
2017-11-12T13:20:00.939Z,5.40
2017-11-12T13:22:28.574Z,5.50
2017-11-12T13:24:57.249Z,5.50
2017-11-12T13:27:24.897Z,5.50
2017-11-12T13:29:52.582Z,5.70
2017-11-12T13:32:20.217Z,5.80
2017-11-12T13:34:47.775Z,5.80
2017-11-12T13:37:15.714Z,5.90
2017-11-12T13:39:43.312Z,6.00
2017-11-12T13:42:11.280Z,5.90
2017-11-12T13:44:38.887Z,5.90
2017-11-12T13:47:06.512Z,5.80
2017-11-12T13:49:34.115Z,5.80
2017-11-12T13:52:01.781Z,5.80
2017-11-12T13:54:29.625Z,5.80
2017-11-12T13:56:57.411Z,5.80
2017-11-12T13:59:25.335Z,5.90
2017-11-12T14:01:52.950Z,5.80
2017-11-12T14:04:20.558Z,5.70
2017-11-12T14:06:48.197Z,5.70
2017-11-12T14:09:15.833Z,5.70
2017-11-12T14:11:43.482Z,5.70
2017-11-12T14:14:11.342Z,5.60
2017-11-12T14:16:39.353Z,5.60
2017-11-12T14:19:07.193Z,5.60
2017-11-12T14:21:35.634Z,5.60
2017-11-12T14:24:04.000Z,5.60
2017-11-12T14:26:32.431Z,5.60
2017-11-12T14:29:00.092Z,5.60
2017-11-12T14:31:27.711Z,5.70
2017-11-12T14:33:55.368Z,5.80
2017-11-12T14:36:24.147Z,6.00
2017-11-12T14:38:51.779Z,6.00
2017-11-12T14:41:19.531Z,6.50
2017-11-12T14:43:47.148Z,6.90
2017-11-12T14:46:15.524Z,7.20
2017-11-12T14:48:43.927Z,7.00
2017-11-12T14:51:11.587Z,7.00
2017-11-12T14:53:39.293Z,6.70
2017-11-12T14:56:06.978Z,6.50
2017-11-12T14:58:34.618Z,6.30
2017-11-12T15:01:02.265Z,6.10
2017-11-12T15:03:29.880Z,6.10
2017-11-12T15:05:58.321Z,6.20
2017-11-12T15:08:25.919Z,6.10
2017-11-12T15:10:53.541Z,6.10
2017-11-12T15:13:21.219Z,6.00
2017-11-12T15:15:49.624Z,5.80
2017-11-12T15:18:17.558Z,5.80
2017-11-12T15:20:45.188Z,5.80
2017-11-12T15:23:12.834Z,5.80
2017-11-12T15:25:40.434Z,5.80
2017-11-12T15:28:08.024Z,5.70
2017-11-12T15:30:36.794Z,5.50
2017-11-12T15:33:04.451Z,5.50
2017-11-12T15:35:32.092Z,5.30
2017-11-12T15:37:59.687Z,5.20
2017-11-12T15:40:28.078Z,5.10
2017-11-12T15:42:56.760Z,5.00
2017-11-12T15:45:25.183Z,4.90
2017-11-12T15:47:52.868Z,4.90
2017-11-12T15:50:20.469Z,4.90
2017-11-12T15:52:48.085Z,4.90
2017-11-12T15:55:15.764Z,5.00
2017-11-12T15:57:43.359Z,5.20
2017-11-12T16:00:11.217Z,5.30
2017-11-12T16:02:38.832Z,5.20
2017-11-12T16:05:06.501Z,5.30
2017-11-12T16:07:34.126Z,5.30
2017-11-12T16:10:01.845Z,5.40
2017-11-12T16:12:29.478Z,5.30
2017-11-12T16:14:57.077Z,5.20
2017-11-12T16:17:24.962Z,5.10
2017-11-12T16:19:52.573Z,5.00
2017-11-12T16:25:15.047Z,4.90
2017-11-12T16:27:43.464Z,4.80
2017-11-12T16:30:11.127Z,4.80
2017-11-12T16:32:38.792Z,4.70
2017-11-12T16:35:06.437Z,4.70
2017-11-12T16:37:34.074Z,4.80
2017-11-12T16:40:02.929Z,4.80
2017-11-12T16:42:30.563Z,4.80
2017-11-12T16:44:58.202Z,4.80
2017-11-12T16:47:26.043Z,4.80
2017-11-12T16:49:54.453Z,4.50
2017-11-12T16:52:22.166Z,4.50
2017-11-12T16:54:49.807Z,4.50
2017-11-12T16:57:17.486Z,4.30
2017-11-12T16:59:45.146Z,4.20
2017-11-12T17:02:12.800Z,4.10
2017-11-12T17:04:40.889Z,4.00
2017-11-12T17:07:08.500Z,4.00
2017-11-12T17:09:36.119Z,3.90
2017-11-12T17:12:03.749Z,3.80
2017-11-12T17:14:31.344Z,3.70
2017-11-12T17:17:02.690Z,3.70
2017-11-12T17:19:31.124Z,3.80
2017-11-12T17:21:58.807Z,3.80
2017-11-12T17:24:26.452Z,3.80
2017-11-12T17:26:54.110Z,3.90
2017-11-12T17:29:21.804Z,4.00
2017-11-12T17:31:49.446Z,4.00
2017-11-12T17:34:17.039Z,4.10
2017-11-12T17:36:44.730Z,4.10
2017-11-12T17:39:12.602Z,4.20
2017-11-12T17:41:40.643Z,4.30
2017-11-12T17:44:09.044Z,4.30
2017-11-12T17:46:36.753Z,4.30
2017-11-12T17:49:04.454Z,4.30
2017-11-12T17:51:32.078Z,4.30
2017-11-12T17:53:59.799Z,4.10
2017-11-12T17:56:27.727Z,4.00
2017-11-12T17:58:55.780Z,3.80
2017-11-12T18:01:24.165Z,3.60
2017-11-12T18:03:51.858Z,3.60
2017-11-12T18:06:20.548Z,3.60
2017-11-12T18:08:48.449Z,3.50
2017-11-12T18:11:16.457Z,3.70
2017-11-12T18:13:44.223Z,3.80
2017-11-12T18:16:11.910Z,3.90
2017-11-12T18:18:39.676Z,4.00
2017-11-12T18:21:08.217Z,4.10
2017-11-12T18:23:35.858Z,4.10
2017-11-12T18:26:03.564Z,4.20
2017-11-12T18:28:32.078Z,4.20
2017-11-12T18:30:59.913Z,4.20
2017-11-12T18:33:27.588Z,4.20
2017-11-12T18:35:55.543Z,4.30
2017-11-12T18:38:23.955Z,4.30
2017-11-12T18:40:51.569Z,4.30
2017-11-12T18:43:19.542Z,4.30
2017-11-12T18:45:47.392Z,4.40
2017-11-12T18:48:15.447Z,4.30
2017-11-12T18:50:49.246Z,4.30
2017-11-12T18:53:19.217Z,4.30
2017-11-12T18:55:56.746Z,4.40
2017-11-12T18:58:29.889Z,4.40
2017-11-12T19:01:03.901Z,4.40
2017-11-12T19:03:35.317Z,4.50
2017-11-12T19:06:08.652Z,4.50
2017-11-12T19:08:37.435Z,4.50
2017-11-12T19:11:05.055Z,4.50
2017-11-12T19:13:32.685Z,4.60
2017-11-12T19:16:00.303Z,4.60
2017-11-12T19:18:32.359Z,4.60
2017-11-12T19:24:13.929Z,4.60
2017-11-12T19:26:47.131Z,4.60
2017-11-12T19:29:16.288Z,4.60
2017-11-12T19:31:44.070Z,4.60
2017-11-12T19:34:11.838Z,4.60
2017-11-12T19:36:39.683Z,4.40
2017-11-12T19:39:07.422Z,4.30
2017-11-12T19:41:36.360Z,4.20
2017-11-12T19:44:04.042Z,4.20
2017-11-12T19:46:31.823Z,4.20
2017-11-12T19:48:59.703Z,4.30
2017-11-12T19:51:27.461Z,4.40
2017-11-12T19:53:55.153Z,4.40
2017-11-12T19:56:23.562Z,4.50
2017-11-12T19:58:51.793Z,4.50
2017-11-12T20:01:20.298Z,4.60
2017-11-12T20:03:47.978Z,4.50
2017-11-12T20:06:15.901Z,4.60
2017-11-12T20:08:43.683Z,4.60
2017-11-12T20:11:11.580Z,4.60
2017-11-12T20:13:39.236Z,4.60
2017-11-12T20:16:07.130Z,4.60
2017-11-12T20:18:34.946Z,4.70
2017-11-12T20:21:02.641Z,4.70
2017-11-12T20:23:34.164Z,4.70
2017-11-12T20:26:02.731Z,4.70
2017-11-12T20:28:30.507Z,4.80
2017-11-12T20:30:58.247Z,4.80
2017-11-12T20:33:26.227Z,4.80
2017-11-12T20:35:53.936Z,4.80
2017-11-12T20:38:21.660Z,4.80
2017-11-12T20:40:49.351Z,4.70
2017-11-12T20:43:16.971Z,4.70
2017-11-12T20:45:45.388Z,4.70
2017-11-12T20:48:13.056Z,4.70
2017-11-12T20:50:41.376Z,4.80
2017-11-12T20:53:08.987Z,4.80
2017-11-12T20:55:37.377Z,4.70
2017-11-12T20:58:05.096Z,4.70
2017-11-12T21:00:45.673Z,4.80
2017-11-12T21:03:13.357Z,4.70
2017-11-12T21:05:41.734Z,4.70
2017-11-12T21:08:09.414Z,4.70
2017-11-12T21:10:37.158Z,4.70
2017-11-12T21:13:05.203Z,4.70
2017-11-12T21:15:32.871Z,4.70
2017-11-12T21:18:00.618Z,4.70
2017-11-12T21:23:41.052Z,4.60
2017-11-12T21:26:09.532Z,4.60
2017-11-12T21:28:39.960Z,4.60
2017-11-12T21:34:15.882Z,4.30
2017-11-12T21:36:43.602Z,4.10
2017-11-12T21:39:11.220Z,4.10
2017-11-12T21:41:39.141Z,4.00
2017-11-12T21:44:10.154Z,4.00
2017-11-12T21:46:38.053Z,4.00
2017-11-12T21:49:05.740Z,4.00
2017-11-12T21:51:33.414Z,3.90
2017-11-12T21:54:02.215Z,3.90
2017-11-12T21:56:30.134Z,3.80
2017-11-12T21:58:57.779Z,3.80
2017-11-12T22:01:25.402Z,3.70
2017-11-12T22:03:53.506Z,3.70
2017-11-12T22:06:21.221Z,3.80
2017-11-12T22:08:48.863Z,3.70
2017-11-12T22:11:16.618Z,3.80
2017-11-12T22:13:45.031Z,4.00
2017-11-12T22:16:12.773Z,4.00
2017-11-12T22:18:41.202Z,4.20
2017-11-12T22:21:09.321Z,4.20
2017-11-12T22:23:37.722Z,4.30
2017-11-12T22:26:05.330Z,4.20
2017-11-12T22:28:33.084Z,4.20
2017-11-12T22:31:02.215Z,4.10
2017-11-12T22:33:30.264Z,4.10
2017-11-12T22:35:57.950Z,4.10
2017-11-12T22:38:25.763Z,4.00
2017-11-12T22:40:53.473Z,4.00
2017-11-12T22:43:21.983Z,4.00
2017-11-12T22:45:49.876Z,4.00
2017-11-12T22:48:17.451Z,4.00
2017-11-12T22:50:45.088Z,4.10
2017-11-12T22:53:12.715Z,4.10
2017-11-12T22:55:40.319Z,4.10
2017-11-12T22:58:09.078Z,4.10
2017-11-12T23:00:36.681Z,4.10
2017-11-12T23:03:04.275Z,4.00
2017-11-12T23:05:32.698Z,3.90
2017-11-12T23:08:00.333Z,3.80
2017-11-12T23:10:27.974Z,3.90
2017-11-12T23:12:56.529Z,4.10
2017-11-12T23:15:24.473Z,4.10
2017-11-12T23:17:52.105Z,4.20
2017-11-12T23:20:19.691Z,4.20
2017-11-12T23:22:47.325Z,4.10
2017-11-12T23:25:14.943Z,4.00
2017-11-12T23:27:42.540Z,3.90
2017-11-12T23:30:10.135Z,4.00
2017-11-12T23:32:38.006Z,4.10
2017-11-12T23:35:05.600Z,4.10
2017-11-12T23:37:33.301Z,4.20
2017-11-12T23:40:00.930Z,4.20
2017-11-12T23:42:29.288Z,4.00
2017-11-12T23:44:56.915Z,4.00
2017-11-12T23:47:24.507Z,3.80
2017-11-12T23:49:52.403Z,3.70
2017-11-12T23:52:20.779Z,3.40
2017-11-12T23:54:49.135Z,3.50
2017-11-12T23:57:16.748Z,3.40
2017-11-12T23:59:44.356Z,3.40
